sensor_id;sensor_type;location;lat;lon;timestamp;temperature;humidity
10051;DHT22;5065;46.942;7.432;2022-10-23T00:00:34;14.70;99.90
10051;DHT22;5065;46.942;7.432;2022-10-23T00:03:02;14.60;99.90
10051;DHT22;5065;46.942;7.432;2022-10-23T00:05:29;14.50;99.90
10051;DHT22;5065;46.942;7.432;2022-10-23T00:07:58;14.50;99.90
10051;DHT22;5065;46.942;7.432;2022-10-23T00:10:26;14.50;99.90
10051;DHT22;5065;46.942;7.432;2022-10-23T00:12:55;14.60;99.90
10051;DHT22;5065;46.942;7.432;2022-10-23T00:15:22;14.50;99.90
10051;DHT22;5065;46.942;7.432;2022-10-23T00:17:52;14.50;99.90
10051;DHT22;5065;46.942;7.432;2022-10-23T00:20:19;14.50;99.90
10051;DHT22;5065;46.942;7.432;2022-10-23T00:22:47;14.50;99.90
10051;DHT22;5065;46.942;7.432;2022-10-23T00:25:14;14.50;99.90
10051;DHT22;5065;46.942;7.432;2022-10-23T00:27:41;14.50;99.90
10051;DHT22;5065;46.942;7.432;2022-10-23T00:30:11;14.50;99.90
10051;DHT22;5065;46.942;7.432;2022-10-23T00:32:38;14.50;99.90
10051;DHT22;5065;46.942;7.432;2022-10-23T00:35:06;14.50;99.90
10051;DHT22;5065;46.942;7.432;2022-10-23T00:37:33;14.40;99.90
10051;DHT22;5065;46.942;7.432;2022-10-23T00:40:00;14.40;99.90
10051;DHT22;5065;46.942;7.432;2022-10-23T00:42:27;14.40;99.90
10051;DHT22;5065;46.942;7.432;2022-10-23T00:45:15;14.30;99.90
10051;DHT22;5065;46.942;7.432;2022-10-23T00:47:43;14.30;99.90
10051;DHT22;5065;46.942;7.432;2022-10-23T00:50:10;14.20;99.90
10051;DHT22;5065;46.942;7.432;2022-10-23T00:52:41;14.20;99.90
10051;DHT22;5065;46.942;7.432;2022-10-23T00:55:09;14.10;99.90
10051;DHT22;5065;46.942;7.432;2022-10-23T00:57:41;14.10;99.90
10051;DHT22;5065;46.942;7.432;2022-10-23T01:00:13;14.10;99.90
10051;DHT22;5065;46.942;7.432;2022-10-23T01:02:42;13.90;99.90
10051;DHT22;5065;46.942;7.432;2022-10-23T01:05:09;13.90;99.90
10051;DHT22;5065;46.942;7.432;2022-10-23T01:07:42;13.90;99.90
10051;DHT22;5065;46.942;7.432;2022-10-23T01:10:15;13.80;99.90
10051;DHT22;5065;46.942;7.432;2022-10-23T01:12:45;13.80;99.90
10051;DHT22;5065;46.942;7.432;2022-10-23T01:15:19;13.80;99.90
10051;DHT22;5065;46.942;7.432;2022-10-23T01:17:52;13.80;99.90
10051;DHT22;5065;46.942;7.432;2022-10-23T01:20:39;13.80;99.90
10051;DHT22;5065;46.942;7.432;2022-10-23T01:23:21;13.80;99.90
10051;DHT22;5065;46.942;7.432;2022-10-23T01:26:00;13.80;99.90
10051;DHT22;5065;46.942;7.432;2022-10-23T01:28:35;13.80;99.90
10051;DHT22;5065;46.942;7.432;2022-10-23T01:31:10;13.80;99.90
10051;DHT22;5065;46.942;7.432;2022-10-23T01:33:42;13.80;99.90
10051;DHT22;5065;46.942;7.432;2022-10-23T01:36:13;13.80;99.90
10051;DHT22;5065;46.942;7.432;2022-10-23T01:38:45;13.80;99.90
10051;DHT22;5065;46.942;7.432;2022-10-23T01:41:17;13.80;99.90
10051;DHT22;5065;46.942;7.432;2022-10-23T01:43:50;13.70;99.90
10051;DHT22;5065;46.942;7.432;2022-10-23T01:46:18;13.70;99.90
10051;DHT22;5065;46.942;7.432;2022-10-23T01:48:49;13.70;99.90
10051;DHT22;5065;46.942;7.432;2022-10-23T01:51:19;13.70;99.90
10051;DHT22;5065;46.942;7.432;2022-10-23T01:53:48;13.80;99.90
10051;DHT22;5065;46.942;7.432;2022-10-23T01:56:19;13.70;99.90
10051;DHT22;5065;46.942;7.432;2022-10-23T01:58:52;13.80;99.90
10051;DHT22;5065;46.942;7.432;2022-10-23T02:01:23;13.80;99.90
10051;DHT22;5065;46.942;7.432;2022-10-23T02:03:52;13.80;99.90
10051;DHT22;5065;46.942;7.432;2022-10-23T02:06:20;13.80;99.90
10051;DHT22;5065;46.942;7.432;2022-10-23T02:08:47;13.80;99.90
10051;DHT22;5065;46.942;7.432;2022-10-23T02:11:16;13.80;99.90
10051;DHT22;5065;46.942;7.432;2022-10-23T02:13:52;13.80;99.90
10051;DHT22;5065;46.942;7.432;2022-10-23T02:16:27;13.80;99.90
10051;DHT22;5065;46.942;7.432;2022-10-23T02:19:05;13.80;99.90
10051;DHT22;5065;46.942;7.432;2022-10-23T02:21:41;13.70;99.90
10051;DHT22;5065;46.942;7.432;2022-10-23T02:24:16;13.70;99.90
10051;DHT22;5065;46.942;7.432;2022-10-23T02:26:50;13.70;99.90
10051;DHT22;5065;46.942;7.432;2022-10-23T02:29:24;13.70;99.90
10051;DHT22;5065;46.942;7.432;2022-10-23T02:31:52;13.60;99.90
10051;DHT22;5065;46.942;7.432;2022-10-23T02:34:19;13.60;99.90
10051;DHT22;5065;46.942;7.432;2022-10-23T02:36:46;13.70;99.90
10051;DHT22;5065;46.942;7.432;2022-10-23T02:39:13;13.70;99.90
10051;DHT22;5065;46.942;7.432;2022-10-23T02:41:44;13.70;99.90
10051;DHT22;5065;46.942;7.432;2022-10-23T02:44:30;13.70;99.90
10051;DHT22;5065;46.942;7.432;2022-10-23T02:47:07;13.70;99.90
10051;DHT22;5065;46.942;7.432;2022-10-23T02:49:40;13.60;99.90
10051;DHT22;5065;46.942;7.432;2022-10-23T02:52:13;13.60;99.90
10051;DHT22;5065;46.942;7.432;2022-10-23T02:54:54;13.60;99.90
10051;DHT22;5065;46.942;7.432;2022-10-23T02:57:29;13.60;99.90
10051;DHT22;5065;46.942;7.432;2022-10-23T03:00:04;13.60;99.90
10051;DHT22;5065;46.942;7.432;2022-10-23T03:02:36;13.60;99.90
10051;DHT22;5065;46.942;7.432;2022-10-23T03:05:06;13.50;99.90
10051;DHT22;5065;46.942;7.432;2022-10-23T03:07:35;13.50;99.90
10051;DHT22;5065;46.942;7.432;2022-10-23T03:10:03;13.50;99.90
10051;DHT22;5065;46.942;7.432;2022-10-23T03:12:30;13.50;99.90
10051;DHT22;5065;46.942;7.432;2022-10-23T03:14:57;13.50;99.90
10051;DHT22;5065;46.942;7.432;2022-10-23T03:17:26;13.50;99.90
10051;DHT22;5065;46.942;7.432;2022-10-23T03:19:53;13.50;99.90
10051;DHT22;5065;46.942;7.432;2022-10-23T03:22:20;13.50;99.90
10051;DHT22;5065;46.942;7.432;2022-10-23T03:24:47;13.50;99.90
10051;DHT22;5065;46.942;7.432;2022-10-23T03:27:14;13.50;99.90
10051;DHT22;5065;46.942;7.432;2022-10-23T03:29:42;13.50;99.90
10051;DHT22;5065;46.942;7.432;2022-10-23T03:32:09;13.50;99.90
10051;DHT22;5065;46.942;7.432;2022-10-23T03:34:37;13.40;99.90
10051;DHT22;5065;46.942;7.432;2022-10-23T03:37:04;13.40;99.90
10051;DHT22;5065;46.942;7.432;2022-10-23T03:39:31;13.40;99.90
10051;DHT22;5065;46.942;7.432;2022-10-23T03:41:59;13.40;99.90
10051;DHT22;5065;46.942;7.432;2022-10-23T03:44:26;13.40;99.90
10051;DHT22;5065;46.942;7.432;2022-10-23T03:46:55;13.40;99.90
10051;DHT22;5065;46.942;7.432;2022-10-23T03:49:23;13.40;99.90
10051;DHT22;5065;46.942;7.432;2022-10-23T03:51:51;13.30;99.90
10051;DHT22;5065;46.942;7.432;2022-10-23T03:54:20;13.30;99.90
10051;DHT22;5065;46.942;7.432;2022-10-23T03:56:47;13.30;99.90
10051;DHT22;5065;46.942;7.432;2022-10-23T03:59:14;13.30;99.90
10051;DHT22;5065;46.942;7.432;2022-10-23T04:01:42;13.30;99.90
10051;DHT22;5065;46.942;7.432;2022-10-23T04:04:09;13.30;99.90
10051;DHT22;5065;46.942;7.432;2022-10-23T04:06:37;13.30;99.90
10051;DHT22;5065;46.942;7.432;2022-10-23T04:09:06;13.20;99.90
10051;DHT22;5065;46.942;7.432;2022-10-23T04:11:33;13.20;99.90
10051;DHT22;5065;46.942;7.432;2022-10-23T04:14:01;13.20;99.90
10051;DHT22;5065;46.942;7.432;2022-10-23T04:16:28;13.20;99.90
10051;DHT22;5065;46.942;7.432;2022-10-23T04:18:55;13.20;99.90
10051;DHT22;5065;46.942;7.432;2022-10-23T04:21:22;13.10;99.90
10051;DHT22;5065;46.942;7.432;2022-10-23T04:23:49;13.10;99.90
10051;DHT22;5065;46.942;7.432;2022-10-23T04:26:18;13.10;99.90
10051;DHT22;5065;46.942;7.432;2022-10-23T04:28:45;13.10;99.90
10051;DHT22;5065;46.942;7.432;2022-10-23T04:31:12;13.10;99.90
10051;DHT22;5065;46.942;7.432;2022-10-23T04:33:39;13.10;99.90
10051;DHT22;5065;46.942;7.432;2022-10-23T04:36:07;13.10;99.90
10051;DHT22;5065;46.942;7.432;2022-10-23T04:38:34;13.00;99.90
10051;DHT22;5065;46.942;7.432;2022-10-23T04:41:01;13.00;99.90
10051;DHT22;5065;46.942;7.432;2022-10-23T04:43:30;13.00;99.90
10051;DHT22;5065;46.942;7.432;2022-10-23T04:45:57;13.00;99.90
10051;DHT22;5065;46.942;7.432;2022-10-23T04:48:24;13.00;99.90
10051;DHT22;5065;46.942;7.432;2022-10-23T04:50:55;13.00;99.90
10051;DHT22;5065;46.942;7.432;2022-10-23T04:53:24;13.00;99.90
10051;DHT22;5065;46.942;7.432;2022-10-23T04:55:53;12.90;99.90
10051;DHT22;5065;46.942;7.432;2022-10-23T04:58:20;13.00;99.90
10051;DHT22;5065;46.942;7.432;2022-10-23T05:00:49;12.90;99.90
10051;DHT22;5065;46.942;7.432;2022-10-23T05:03:17;12.90;99.90
10051;DHT22;5065;46.942;7.432;2022-10-23T05:05:45;12.90;99.90
10051;DHT22;5065;46.942;7.432;2022-10-23T05:08:13;12.90;99.90
10051;DHT22;5065;46.942;7.432;2022-10-23T05:10:40;12.90;99.90
10051;DHT22;5065;46.942;7.432;2022-10-23T05:13:07;12.90;99.90
10051;DHT22;5065;46.942;7.432;2022-10-23T05:15:34;12.90;99.90
10051;DHT22;5065;46.942;7.432;2022-10-23T05:18:08;12.80;99.90
10051;DHT22;5065;46.942;7.432;2022-10-23T05:20:38;12.80;99.90
10051;DHT22;5065;46.942;7.432;2022-10-23T05:23:07;12.80;99.90
10051;DHT22;5065;46.942;7.432;2022-10-23T05:25:36;12.80;99.90
10051;DHT22;5065;46.942;7.432;2022-10-23T05:28:03;12.70;99.90
10051;DHT22;5065;46.942;7.432;2022-10-23T05:30:32;12.70;99.90
10051;DHT22;5065;46.942;7.432;2022-10-23T05:32:59;12.70;99.90
10051;DHT22;5065;46.942;7.432;2022-10-23T05:35:29;12.70;99.90
10051;DHT22;5065;46.942;7.432;2022-10-23T05:37:57;12.60;99.90
10051;DHT22;5065;46.942;7.432;2022-10-23T05:40:25;12.60;99.90
10051;DHT22;5065;46.942;7.432;2022-10-23T05:42:53;12.60;99.90
10051;DHT22;5065;46.942;7.432;2022-10-23T05:45:20;12.60;99.90
10051;DHT22;5065;46.942;7.432;2022-10-23T05:47:47;12.60;99.90
10051;DHT22;5065;46.942;7.432;2022-10-23T05:50:15;12.60;99.90
10051;DHT22;5065;46.942;7.432;2022-10-23T05:52:47;12.50;99.90
10051;DHT22;5065;46.942;7.432;2022-10-23T05:55:15;12.50;99.90
10051;DHT22;5065;46.942;7.432;2022-10-23T05:57:43;12.50;99.90
10051;DHT22;5065;46.942;7.432;2022-10-23T06:00:11;12.40;99.90
10051;DHT22;5065;46.942;7.432;2022-10-23T06:02:38;12.30;99.90
10051;DHT22;5065;46.942;7.432;2022-10-23T06:05:06;12.20;99.90
10051;DHT22;5065;46.942;7.432;2022-10-23T06:07:33;12.20;99.90
10051;DHT22;5065;46.942;7.432;2022-10-23T06:10:02;12.10;99.90
10051;DHT22;5065;46.942;7.432;2022-10-23T06:12:31;12.10;99.90
10051;DHT22;5065;46.942;7.432;2022-10-23T06:14:58;12.20;99.90
10051;DHT22;5065;46.942;7.432;2022-10-23T06:17:26;12.10;99.90
10051;DHT22;5065;46.942;7.432;2022-10-23T06:19:54;12.10;99.90
10051;DHT22;5065;46.942;7.432;2022-10-23T06:22:25;12.10;99.90
10051;DHT22;5065;46.942;7.432;2022-10-23T06:24:53;12.10;99.90
10051;DHT22;5065;46.942;7.432;2022-10-23T06:27:21;12.10;99.90
10051;DHT22;5065;46.942;7.432;2022-10-23T06:29:49;12.10;99.90
10051;DHT22;5065;46.942;7.432;2022-10-23T06:32:16;12.10;99.90
10051;DHT22;5065;46.942;7.432;2022-10-23T06:34:43;12.10;99.90
10051;DHT22;5065;46.942;7.432;2022-10-23T06:37:10;12.10;99.90
10051;DHT22;5065;46.942;7.432;2022-10-23T06:39:37;12.10;99.90
10051;DHT22;5065;46.942;7.432;2022-10-23T06:42:05;12.10;99.90
10051;DHT22;5065;46.942;7.432;2022-10-23T06:44:34;12.10;99.90
10051;DHT22;5065;46.942;7.432;2022-10-23T06:47:01;12.20;99.90
10051;DHT22;5065;46.942;7.432;2022-10-23T06:49:28;12.30;99.90
10051;DHT22;5065;46.942;7.432;2022-10-23T06:51:55;12.30;99.90
10051;DHT22;5065;46.942;7.432;2022-10-23T06:54:22;12.40;99.90
10051;DHT22;5065;46.942;7.432;2022-10-23T06:56:49;12.40;99.90
10051;DHT22;5065;46.942;7.432;2022-10-23T06:59:16;12.40;99.90
10051;DHT22;5065;46.942;7.432;2022-10-23T07:01:45;12.30;99.90
10051;DHT22;5065;46.942;7.432;2022-10-23T07:04:13;12.30;99.90
10051;DHT22;5065;46.942;7.432;2022-10-23T07:06:40;12.40;99.90
10051;DHT22;5065;46.942;7.432;2022-10-23T07:09:08;12.30;99.90
10051;DHT22;5065;46.942;7.432;2022-10-23T07:11:36;12.30;99.90
10051;DHT22;5065;46.942;7.432;2022-10-23T07:14:03;12.30;99.90
10051;DHT22;5065;46.942;7.432;2022-10-23T07:16:30;12.50;99.90
10051;DHT22;5065;46.942;7.432;2022-10-23T07:18:59;12.60;99.90
10051;DHT22;5065;46.942;7.432;2022-10-23T07:21:27;12.80;99.90
10051;DHT22;5065;46.942;7.432;2022-10-23T07:23:54;13.00;99.90
10051;DHT22;5065;46.942;7.432;2022-10-23T07:26:21;13.10;99.90
10051;DHT22;5065;46.942;7.432;2022-10-23T07:28:48;13.20;99.90
10051;DHT22;5065;46.942;7.432;2022-10-23T07:31:19;13.20;99.90
10051;DHT22;5065;46.942;7.432;2022-10-23T07:33:46;13.30;99.90
10051;DHT22;5065;46.942;7.432;2022-10-23T07:36:15;13.10;99.90
10051;DHT22;5065;46.942;7.432;2022-10-23T07:38:43;13.10;99.90
10051;DHT22;5065;46.942;7.432;2022-10-23T07:41:11;13.20;99.90
10051;DHT22;5065;46.942;7.432;2022-10-23T07:43:38;13.30;99.90
10051;DHT22;5065;46.942;7.432;2022-10-23T07:46:06;13.50;99.90
10051;DHT22;5065;46.942;7.432;2022-10-23T07:48:34;13.70;99.90
10051;DHT22;5065;46.942;7.432;2022-10-23T07:51:04;13.70;99.90
10051;DHT22;5065;46.942;7.432;2022-10-23T07:53:35;13.80;99.90
10051;DHT22;5065;46.942;7.432;2022-10-23T07:56:11;13.80;99.90
10051;DHT22;5065;46.942;7.432;2022-10-23T07:58:38;13.80;99.90
10051;DHT22;5065;46.942;7.432;2022-10-23T08:01:14;13.80;99.90
10051;DHT22;5065;46.942;7.432;2022-10-23T08:03:42;13.70;99.90
10051;DHT22;5065;46.942;7.432;2022-10-23T08:06:09;13.80;99.90
10051;DHT22;5065;46.942;7.432;2022-10-23T08:08:38;13.90;99.90
10051;DHT22;5065;46.942;7.432;2022-10-23T08:11:05;13.90;99.90
10051;DHT22;5065;46.942;7.432;2022-10-23T08:13:32;14.00;99.90
10051;DHT22;5065;46.942;7.432;2022-10-23T08:15:59;14.10;99.90
10051;DHT22;5065;46.942;7.432;2022-10-23T08:18:27;14.10;99.90
10051;DHT22;5065;46.942;7.432;2022-10-23T08:20:59;14.10;99.90
10051;DHT22;5065;46.942;7.432;2022-10-23T08:23:27;14.20;99.90
10051;DHT22;5065;46.942;7.432;2022-10-23T08:25:57;14.20;99.90
10051;DHT22;5065;46.942;7.432;2022-10-23T08:28:25;14.30;99.90
10051;DHT22;5065;46.942;7.432;2022-10-23T08:30:52;14.30;99.90
10051;DHT22;5065;46.942;7.432;2022-10-23T08:33:19;14.40;99.90
10051;DHT22;5065;46.942;7.432;2022-10-23T08:35:47;14.40;99.90
10051;DHT22;5065;46.942;7.432;2022-10-23T08:38:14;14.50;99.90
10051;DHT22;5065;46.942;7.432;2022-10-23T08:40:44;14.50;99.90
10051;DHT22;5065;46.942;7.432;2022-10-23T08:43:18;14.60;99.90
10051;DHT22;5065;46.942;7.432;2022-10-23T08:45:49;14.70;99.90
10051;DHT22;5065;46.942;7.432;2022-10-23T08:48:22;14.80;99.90
10051;DHT22;5065;46.942;7.432;2022-10-23T08:50:54;14.90;99.90
10051;DHT22;5065;46.942;7.432;2022-10-23T08:53:28;15.10;99.90
10051;DHT22;5065;46.942;7.432;2022-10-23T08:56:01;15.20;99.90
10051;DHT22;5065;46.942;7.432;2022-10-23T08:58:35;15.30;99.90
10051;DHT22;5065;46.942;7.432;2022-10-23T09:01:22;15.40;99.90
10051;DHT22;5065;46.942;7.432;2022-10-23T09:03:54;15.50;99.90
10051;DHT22;5065;46.942;7.432;2022-10-23T09:06:32;15.60;99.90
10051;DHT22;5065;46.942;7.432;2022-10-23T09:09:29;15.60;99.90
10051;DHT22;5065;46.942;7.432;2022-10-23T09:12:04;15.60;99.90
10051;DHT22;5065;46.942;7.432;2022-10-23T09:17:24;15.90;99.90
10051;DHT22;5065;46.942;7.432;2022-10-23T09:19:58;16.00;99.90
10051;DHT22;5065;46.942;7.432;2022-10-23T09:22:26;16.10;99.90
10051;DHT22;5065;46.942;7.432;2022-10-23T09:24:54;16.20;99.90
10051;DHT22;5065;46.942;7.432;2022-10-23T09:27:21;16.30;99.90
10051;DHT22;5065;46.942;7.432;2022-10-23T09:29:51;16.40;99.90
10051;DHT22;5065;46.942;7.432;2022-10-23T09:32:19;16.50;99.90
10051;DHT22;5065;46.942;7.432;2022-10-23T09:34:57;16.60;99.90
10051;DHT22;5065;46.942;7.432;2022-10-23T09:37:26;16.70;99.90
10051;DHT22;5065;46.942;7.432;2022-10-23T09:40:14;16.80;99.90
10051;DHT22;5065;46.942;7.432;2022-10-23T09:42:56;16.90;99.90
10051;DHT22;5065;46.942;7.432;2022-10-23T09:45:29;16.90;99.90
10051;DHT22;5065;46.942;7.432;2022-10-23T09:48:13;17.00;99.90
10051;DHT22;5065;46.942;7.432;2022-10-23T09:50:51;17.00;99.90
10051;DHT22;5065;46.942;7.432;2022-10-23T09:53:27;17.20;99.90
10051;DHT22;5065;46.942;7.432;2022-10-23T09:55:57;17.30;99.90
10051;DHT22;5065;46.942;7.432;2022-10-23T09:58:30;17.40;99.90
10051;DHT22;5065;46.942;7.432;2022-10-23T10:00:59;17.50;99.90
10051;DHT22;5065;46.942;7.432;2022-10-23T10:03:27;17.70;99.90
10051;DHT22;5065;46.942;7.432;2022-10-23T10:05:56;17.70;99.90
10051;DHT22;5065;46.942;7.432;2022-10-23T10:08:38;17.80;99.90
10051;DHT22;5065;46.942;7.432;2022-10-23T10:11:13;18.00;99.90
10051;DHT22;5065;46.942;7.432;2022-10-23T10:14:13;18.10;99.90
10051;DHT22;5065;46.942;7.432;2022-10-23T10:16:49;18.20;99.90
10051;DHT22;5065;46.942;7.432;2022-10-23T10:19:30;18.30;99.90
10051;DHT22;5065;46.942;7.432;2022-10-23T10:22:08;18.30;99.90
10051;DHT22;5065;46.942;7.432;2022-10-23T10:24:45;18.40;99.90
10051;DHT22;5065;46.942;7.432;2022-10-23T10:27:25;18.40;99.90
10051;DHT22;5065;46.942;7.432;2022-10-23T10:30:02;18.50;99.90
10051;DHT22;5065;46.942;7.432;2022-10-23T10:32:36;18.50;99.90
10051;DHT22;5065;46.942;7.432;2022-10-23T10:35:36;18.50;99.90
10051;DHT22;5065;46.942;7.432;2022-10-23T10:38:42;18.50;99.90
10051;DHT22;5065;46.942;7.432;2022-10-23T10:41:25;18.50;99.90
10051;DHT22;5065;46.942;7.432;2022-10-23T10:44:05;18.50;99.90
10051;DHT22;5065;46.942;7.432;2022-10-23T10:46:41;18.50;99.90
10051;DHT22;5065;46.942;7.432;2022-10-23T10:49:18;18.50;99.90
10051;DHT22;5065;46.942;7.432;2022-10-23T10:51:57;18.50;99.90
10051;DHT22;5065;46.942;7.432;2022-10-23T10:54:36;18.40;99.90
10051;DHT22;5065;46.942;7.432;2022-10-23T10:57:12;18.40;99.90
10051;DHT22;5065;46.942;7.432;2022-10-23T10:59:43;18.50;99.90
10051;DHT22;5065;46.942;7.432;2022-10-23T11:02:22;18.50;99.90
10051;DHT22;5065;46.942;7.432;2022-10-23T11:04:56;18.60;99.90
10051;DHT22;5065;46.942;7.432;2022-10-23T11:07:33;18.60;99.90
10051;DHT22;5065;46.942;7.432;2022-10-23T11:10:05;18.70;99.90
10051;DHT22;5065;46.942;7.432;2022-10-23T11:12:39;18.70;99.90
10051;DHT22;5065;46.942;7.432;2022-10-23T11:15:12;18.80;99.90
10051;DHT22;5065;46.942;7.432;2022-10-23T11:17:45;18.80;99.90
10051;DHT22;5065;46.942;7.432;2022-10-23T11:20:35;18.80;99.90
10051;DHT22;5065;46.942;7.432;2022-10-23T11:23:14;18.80;99.90
10051;DHT22;5065;46.942;7.432;2022-10-23T11:25:59;18.80;99.90
10051;DHT22;5065;46.942;7.432;2022-10-23T11:28:43;18.80;99.90
10051;DHT22;5065;46.942;7.432;2022-10-23T11:31:21;18.80;99.90
10051;DHT22;5065;46.942;7.432;2022-10-23T11:34:13;18.80;99.90
10051;DHT22;5065;46.942;7.432;2022-10-23T11:36:49;18.80;99.90
10051;DHT22;5065;46.942;7.432;2022-10-23T11:39:22;18.80;99.90
10051;DHT22;5065;46.942;7.432;2022-10-23T11:41:53;18.80;99.90
10051;DHT22;5065;46.942;7.432;2022-10-23T11:44:26;18.80;99.90
10051;DHT22;5065;46.942;7.432;2022-10-23T11:47:02;18.90;99.90
10051;DHT22;5065;46.942;7.432;2022-10-23T11:49:29;19.00;99.90
10051;DHT22;5065;46.942;7.432;2022-10-23T11:52:02;19.00;99.90
10051;DHT22;5065;46.942;7.432;2022-10-23T11:54:30;19.10;99.90
10051;DHT22;5065;46.942;7.432;2022-10-23T11:57:09;19.10;99.90
10051;DHT22;5065;46.942;7.432;2022-10-23T11:59:51;19.10;99.90
10051;DHT22;5065;46.942;7.432;2022-10-23T12:02:26;19.10;99.90
10051;DHT22;5065;46.942;7.432;2022-10-23T12:04:59;19.20;99.90
10051;DHT22;5065;46.942;7.432;2022-10-23T12:07:30;19.10;99.90
10051;DHT22;5065;46.942;7.432;2022-10-23T12:10:01;19.20;99.90
10051;DHT22;5065;46.942;7.432;2022-10-23T12:12:31;19.20;99.90
10051;DHT22;5065;46.942;7.432;2022-10-23T12:15:19;19.20;99.90
10051;DHT22;5065;46.942;7.432;2022-10-23T12:17:47;19.10;99.90
10051;DHT22;5065;46.942;7.432;2022-10-23T12:20:37;19.10;99.90
10051;DHT22;5065;46.942;7.432;2022-10-23T12:23:15;19.10;99.90
10051;DHT22;5065;46.942;7.432;2022-10-23T12:25:59;19.10;99.90
10051;DHT22;5065;46.942;7.432;2022-10-23T12:28:34;19.20;99.90
10051;DHT22;5065;46.942;7.432;2022-10-23T12:31:19;19.10;99.90
10051;DHT22;5065;46.942;7.432;2022-10-23T12:33:53;19.20;99.90
10051;DHT22;5065;46.942;7.432;2022-10-23T12:36:36;19.20;99.90
10051;DHT22;5065;46.942;7.432;2022-10-23T12:39:28;19.20;99.90
10051;DHT22;5065;46.942;7.432;2022-10-23T12:41:56;19.20;99.90
10051;DHT22;5065;46.942;7.432;2022-10-23T12:44:24;19.30;99.90
10051;DHT22;5065;46.942;7.432;2022-10-23T12:46:54;19.30;99.90
10051;DHT22;5065;46.942;7.432;2022-10-23T12:49:24;19.40;99.90
10051;DHT22;5065;46.942;7.432;2022-10-23T12:51:56;19.40;99.90
10051;DHT22;5065;46.942;7.432;2022-10-23T12:54:25;19.50;99.90
10051;DHT22;5065;46.942;7.432;2022-10-23T12:56:53;19.50;99.90
10051;DHT22;5065;46.942;7.432;2022-10-23T12:59:23;19.50;99.90
10051;DHT22;5065;46.942;7.432;2022-10-23T13:01:52;19.50;99.90
10051;DHT22;5065;46.942;7.432;2022-10-23T13:04:26;19.60;99.90
10051;DHT22;5065;46.942;7.432;2022-10-23T13:06:55;19.60;99.90
10051;DHT22;5065;46.942;7.432;2022-10-23T13:09:28;19.60;99.90
10051;DHT22;5065;46.942;7.432;2022-10-23T13:11:57;19.70;99.90
10051;DHT22;5065;46.942;7.432;2022-10-23T13:14:30;19.70;99.90
10051;DHT22;5065;46.942;7.432;2022-10-23T13:16:59;19.60;99.90
10051;DHT22;5065;46.942;7.432;2022-10-23T13:19:26;19.70;99.90
10051;DHT22;5065;46.942;7.432;2022-10-23T13:21:54;19.60;99.90
10051;DHT22;5065;46.942;7.432;2022-10-23T13:24:24;19.60;99.90
10051;DHT22;5065;46.942;7.432;2022-10-23T13:26:51;19.60;99.90
10051;DHT22;5065;46.942;7.432;2022-10-23T13:29:22;19.60;99.90
10051;DHT22;5065;46.942;7.432;2022-10-23T13:31:50;19.60;99.90
10051;DHT22;5065;46.942;7.432;2022-10-23T13:34:25;19.60;99.90
10051;DHT22;5065;46.942;7.432;2022-10-23T13:36:59;19.70;99.90
10051;DHT22;5065;46.942;7.432;2022-10-23T13:39:29;19.70;99.90
10051;DHT22;5065;46.942;7.432;2022-10-23T13:42:07;19.70;99.90
10051;DHT22;5065;46.942;7.432;2022-10-23T13:44:37;19.70;99.90
10051;DHT22;5065;46.942;7.432;2022-10-23T13:47:04;19.70;99.90
10051;DHT22;5065;46.942;7.432;2022-10-23T13:49:32;19.70;99.90
10051;DHT22;5065;46.942;7.432;2022-10-23T13:51:59;19.70;99.90
10051;DHT22;5065;46.942;7.432;2022-10-23T13:54:27;19.70;99.90
10051;DHT22;5065;46.942;7.432;2022-10-23T13:56:55;19.70;99.90
10051;DHT22;5065;46.942;7.432;2022-10-23T13:59:23;19.80;99.90
10051;DHT22;5065;46.942;7.432;2022-10-23T14:01:51;19.80;99.90
10051;DHT22;5065;46.942;7.432;2022-10-23T14:04:19;19.80;99.90
10051;DHT22;5065;46.942;7.432;2022-10-23T14:06:46;19.80;99.90
10051;DHT22;5065;46.942;7.432;2022-10-23T14:09:15;19.70;99.90
10051;DHT22;5065;46.942;7.432;2022-10-23T14:11:42;19.80;99.90
10051;DHT22;5065;46.942;7.432;2022-10-23T14:14:10;19.80;99.90
10051;DHT22;5065;46.942;7.432;2022-10-23T14:16:37;19.80;99.90
10051;DHT22;5065;46.942;7.432;2022-10-23T14:19:06;19.80;99.90
10051;DHT22;5065;46.942;7.432;2022-10-23T14:21:33;19.80;99.90
10051;DHT22;5065;46.942;7.432;2022-10-23T14:24:00;19.80;99.90
10051;DHT22;5065;46.942;7.432;2022-10-23T14:26:28;19.80;99.90
10051;DHT22;5065;46.942;7.432;2022-10-23T14:28:56;19.80;99.90
10051;DHT22;5065;46.942;7.432;2022-10-23T14:31:24;19.80;99.90
10051;DHT22;5065;46.942;7.432;2022-10-23T14:33:53;19.80;99.90
10051;DHT22;5065;46.942;7.432;2022-10-23T14:36:22;19.80;99.90
10051;DHT22;5065;46.942;7.432;2022-10-23T14:38:54;19.80;99.90
10051;DHT22;5065;46.942;7.432;2022-10-23T14:41:21;19.80;99.90
10051;DHT22;5065;46.942;7.432;2022-10-23T14:43:48;19.80;99.90
10051;DHT22;5065;46.942;7.432;2022-10-23T14:46:18;19.80;99.90
10051;DHT22;5065;46.942;7.432;2022-10-23T14:48:45;19.70;99.90
10051;DHT22;5065;46.942;7.432;2022-10-23T14:51:17;19.70;99.90
10051;DHT22;5065;46.942;7.432;2022-10-23T14:53:47;19.60;99.90
10051;DHT22;5065;46.942;7.432;2022-10-23T14:56:15;19.60;99.90
10051;DHT22;5065;46.942;7.432;2022-10-23T14:58:42;19.60;99.90
10051;DHT22;5065;46.942;7.432;2022-10-23T15:01:09;19.60;99.90
10051;DHT22;5065;46.942;7.432;2022-10-23T15:03:36;19.60;99.90
10051;DHT22;5065;46.942;7.432;2022-10-23T15:06:05;19.60;99.90
10051;DHT22;5065;46.942;7.432;2022-10-23T15:08:33;19.60;99.90
10051;DHT22;5065;46.942;7.432;2022-10-23T15:11:02;19.60;99.90
10051;DHT22;5065;46.942;7.432;2022-10-23T15:13:29;19.50;99.90
10051;DHT22;5065;46.942;7.432;2022-10-23T15:16:03;19.50;99.90
10051;DHT22;5065;46.942;7.432;2022-10-23T15:18:31;19.50;99.90
10051;DHT22;5065;46.942;7.432;2022-10-23T15:20:58;19.40;99.90
10051;DHT22;5065;46.942;7.432;2022-10-23T15:23:25;19.40;99.90
10051;DHT22;5065;46.942;7.432;2022-10-23T15:25:55;19.30;99.90
10051;DHT22;5065;46.942;7.432;2022-10-23T15:28:24;19.30;99.90
10051;DHT22;5065;46.942;7.432;2022-10-23T15:30:51;19.20;99.90
10051;DHT22;5065;46.942;7.432;2022-10-23T15:33:18;19.20;99.90
10051;DHT22;5065;46.942;7.432;2022-10-23T15:35:45;19.20;99.90
10051;DHT22;5065;46.942;7.432;2022-10-23T15:38:12;19.20;99.90
10051;DHT22;5065;46.942;7.432;2022-10-23T15:40:39;19.10;99.90
10051;DHT22;5065;46.942;7.432;2022-10-23T15:43:06;19.10;99.90
10051;DHT22;5065;46.942;7.432;2022-10-23T15:45:34;19.00;99.90
10051;DHT22;5065;46.942;7.432;2022-10-23T15:48:02;18.90;99.90
10051;DHT22;5065;46.942;7.432;2022-10-23T15:50:31;18.90;99.90
10051;DHT22;5065;46.942;7.432;2022-10-23T15:52:58;18.90;99.90
10051;DHT22;5065;46.942;7.432;2022-10-23T15:55:25;18.80;99.90
10051;DHT22;5065;46.942;7.432;2022-10-23T15:57:52;18.80;99.90
10051;DHT22;5065;46.942;7.432;2022-10-23T16:00:19;18.80;99.90
10051;DHT22;5065;46.942;7.432;2022-10-23T16:02:47;18.80;99.90
10051;DHT22;5065;46.942;7.432;2022-10-23T16:05:14;18.70;99.90
10051;DHT22;5065;46.942;7.432;2022-10-23T16:07:41;18.70;99.90
10051;DHT22;5065;46.942;7.432;2022-10-23T16:10:08;18.70;99.90